Terminal Aerodrome Forecast
Issued by NWS Cleveland, OH

Home | Current Version | Previous Version | Text Only | Print | Product List | Glossary On
Versions: 1 2 3 4 5 6 7 8 9 10 11 12 13 14 15 16 17 18 19 20 21 22 23 24 25 26 27
345
FTUS41 KCLE 272328
TAFCLE
TAF
KCLE 272328Z 2800/2906 04009KT P6SM SCT250
     FM280600 VRB03KT P6SM BKN120
     FM281100 VRB03KT P6SM SCT035 BKN060
     FM281800 16008KT 6SM -SHRA VCTS OVC050CB
      TEMPO 2818/2822 4SM -SHRA BR OVC025
     FM290300 18008KT P6SM BKN035=

USA.gov is the U.S. government's official web portal to all federal, state and local government web resources and services.